Time;durP1;ratioP1;P1;durP2;ratioP2;P2;SDS_P1;SDS_P2;PMS_P1;PMS_P2;Temp;Humidity;BMP_temperature;BMP_pressure;BME280_temperature;BME280_humidity;BME280_pressure;Samples;Min_cycle;Max_cycle;Signal;HPM_P1;HPM_P2
2022/09/30 00:01:50;;;;;;;12.98;11.68;;;;;;;;;;5114208;28;20666;-68
2022/09/30 00:04:18;;;;;;;12.80;11.40;;;;;;;;;;5114445;28;20276;-68
2022/09/30 00:06:45;;;;;;;12.90;11.60;;;;;;;;;;5113933;28;20309;-67
2022/09/30 00:09:17;;;;;;;12.73;11.60;;;;;;;;;;5115449;28;20239;-67
2022/09/30 00:11:45;;;;;;;14.85;11.88;;;;;;;;;;5115598;28;20287;-70
2022/09/30 00:14:13;;;;;;;17.52;12.25;;;;;;;;;;5114581;28;20252;-67
2022/09/30 00:16:40;;;;;;;12.82;11.38;;;;;;;;;;5113692;28;20243;-67
2022/09/30 00:19:08;;;;;;;19.55;11.77;;;;;;;;;;5113837;28;20669;-68
2022/09/30 00:21:34;;;;;;;13.18;11.77;;;;;;;;;;5113894;28;20197;-69
2022/09/30 00:24:06;;;;;;;14.93;12.05;;;;;;;;;;5114901;28;20250;-67
2022/09/30 00:26:33;;;;;;;17.35;11.50;;;;;;;;;;5114162;28;20258;-68
2022/09/30 00:29:01;;;;;;;12.70;11.40;;;;;;;;;;5114002;28;20755;-67
2022/09/30 00:31:28;;;;;;;13.82;11.25;;;;;;;;;;5113302;28;20197;-67
2022/09/30 00:34:07;;;;;;;18.83;12.57;;;;;;;;;;5113688;28;20201;-69
2022/09/30 00:36:37;;;;;;;13.63;11.23;;;;;;;15.74;nan;94809.34;5114215;28;20217;-67
2022/09/30 00:39:04;;;;;;;15.00;11.90;;;;;;;;;;5114407;28;20197;-67
2022/09/30 00:41:31;;;;;;;20.05;12.00;;;;;;;;;;5114070;28;20280;-68
2022/09/30 00:43:57;;;;;;;13.88;11.77;;;;;;;;;;5114172;28;20205;-68
2022/09/30 00:46:28;;;;;;;13.60;11.48;;;;;;;;;;5113302;28;20682;-68
2022/09/30 00:48:56;;;;;;;12.98;11.65;;;;;;;;;;5113376;28;20196;-67
2022/09/30 00:51:27;;;;;;;13.40;10.95;;;;;;;;;;5113716;28;20225;-68
2022/09/30 00:53:57;;;;;;;12.27;10.85;;;;;;;;;;5113254;28;20632;-67
2022/09/30 00:56:24;;;;;;;15.05;10.82;;;;;;;;;;5113611;28;20225;-67
2022/09/30 00:58:54;;;;;;;11.00;9.90;;;;;;;;;;5113901;28;20274;-66
2022/09/30 01:01:21;;;;;;;14.00;11.10;;;;;;;;;;5113120;28;20280;-68
2022/09/30 01:03:49;;;;;;;13.38;12.00;;;;;;;;;;5113097;28;20622;-67
2022/09/30 01:06:16;;;;;;;17.80;10.85;;;;;;;;;;5112821;27;20233;-69
2022/09/30 01:08:46;;;;;;;11.63;10.27;;;;;;;;;;5120483;28;20239;-69
2022/09/30 01:11:14;;;;;;;12.02;10.77;;;;;;;;;;5114601;28;20197;-69
2022/09/30 01:13:41;;;;;;;14.50;10.35;;;;;;;;;;5116638;28;20201;-68
2022/09/30 01:16:38;;;;;;;15.80;10.73;;;;;;;;;;5114755;28;20197;-68
2022/09/30 01:19:26;;;;;;;14.65;10.27;;;;;;;;;;5085441;28;20255;-72
2022/09/30 01:22:03;;;;;;;14.55;9.95;;;;;;;;;;5113106;28;20190;-68
2022/09/30 01:24:54;;;;;;;11.80;10.55;;;;;;;;;;5116765;28;20238;-67
2022/09/30 01:30:26;;;;;;;13.07;10.98;;;;;;;;;;5113271;28;20200;-67
2022/09/30 01:33:09;;;;;;;10.77;9.35;;;;;;;;;;5114459;28;20189;-68
2022/09/30 01:35:43;;;;;;;21.67;10.40;;;;;;;;;;5114702;28;20232;-68
2022/09/30 01:41:00;;;;;;;11.63;10.35;;;;;;;;;;5112245;28;20200;-68
2022/09/30 01:43:30;;;;;;;17.15;9.77;;;;;;;;;;5116831;28;20220;-68
2022/09/30 01:45:59;;;;;;;11.13;9.85;;;;;;;;;;5112847;28;20185;-66
2022/09/30 01:48:32;;;;;;;12.40;10.40;;;;;;;;;;5112818;28;20271;-68
2022/09/30 01:51:02;;;;;;;11.07;9.93;;;;;;;;;;5113475;28;20223;-69
2022/09/30 01:53:32;;;;;;;15.48;11.02;;;;;;;;;;5114664;28;20244;-68
2022/09/30 01:56:01;;;;;;;16.08;10.82;;;;;;;;;;5111931;28;20239;-68
2022/09/30 01:58:33;;;;;;;12.93;11.57;;;;;;;;;;5120932;28;20225;-69
2022/09/30 02:01:04;;;;;;;13.93;12.07;;;;;;;;;;5117514;28;20189;-71
2022/09/30 02:03:34;;;;;;;13.23;11.63;;;;;;;;;;5112943;28;20253;-69
2022/09/30 02:06:02;;;;;;;20.17;12.30;;;;;;;;;;5113101;28;20232;-68
2022/09/30 02:08:32;;;;;;;15.65;11.85;;;;;;;;;;5115078;28;20238;-69
2022/09/30 02:11:01;;;;;;;14.27;11.55;;;;;;;;;;5112334;28;20647;-69
2022/09/30 02:13:30;;;;;;;13.77;11.63;;;;;;;;;;5113030;28;20189;-68
2022/09/30 02:15:58;;;;;;;22.40;12.10;;;;;;;;;;5113574;28;20201;-67
2022/09/30 02:18:28;;;;;;;18.00;12.38;;;;;;;;;;5112358;28;20274;-68
2022/09/30 02:21:00;;;;;;;16.13;12.20;;;;;;;;;;5111507;28;20199;-69
2022/09/30 02:23:32;;;;;;;37.08;13.45;;;;;;;;;;5114028;28;20193;-70
2022/09/30 02:26:04;;;;;;;21.70;13.80;;;;;;;;;;5113139;28;20197;-68
2022/09/30 02:28:31;;;;;;;28.95;12.20;;;;;;;;;;5112574;28;20197;-70
2022/09/30 02:30:59;;;;;;;24.85;12.43;;;;;;;;;;5114173;28;20197;-68
2022/09/30 02:33:38;;;;;;;37.03;12.50;;;;;;;;;;5117027;28;20284;-73
2022/09/30 02:36:08;;;;;;;19.10;12.10;;;;;;;;;;5111495;28;20205;-68
2022/09/30 02:38:42;;;;;;;35.55;12.63;;;;;;;;;;5118140;28;20217;-71
2022/09/30 02:41:10;;;;;;;40.75;12.95;;;;;;;;;;5113910;28;20208;-68
2022/09/30 02:43:40;;;;;;;17.38;11.43;;;;;;;;;;5113631;28;20188;-69
2022/09/30 02:46:10;;;;;;;46.85;11.13;;;;;;;;;;5115031;28;20254;-67
2022/09/30 02:48:40;;;;;;;38.58;10.80;;;;;;;;;;5113821;28;20193;-68
2022/09/30 02:51:11;;;;;;;71.38;11.23;;;;;;;;;;5111322;28;20197;-68
2022/09/30 02:53:40;;;;;;;14.90;9.73;;;;;;;;;;5111705;28;20266;-68
2022/09/30 02:56:20;;;;;;;22.83;9.30;;;;;;;;;;5111234;28;20205;-69
2022/09/30 02:58:47;;;;;;;10.07;9.20;;;;;;;;;;5111285;28;20216;-68
2022/09/30 03:01:15;;;;;;;32.97;11.07;;;;;;;;;;5110601;28;20274;-70
2022/09/30 03:03:42;;;;;;;150.20;16.05;;;;;;;;;;5111419;28;20230;-69
2022/09/30 03:06:10;;;;;;;36.22;10.90;;;;;;;;;;5110880;28;20233;-69
2022/09/30 03:08:37;;;;;;;29.85;10.80;;;;;;;;;;5111335;28;20196;-68
2022/09/30 03:11:05;;;;;;;26.52;10.35;;;;;;;;;;5110672;28;20431;-69
2022/09/30 03:14:00;;;;;;;13.55;10.02;;;;;;;;;;5111007;28;20694;-68
2022/09/30 03:16:35;;;;;;;44.08;9.98;;;;;;;;;;5110627;28;20322;-68
2022/09/30 03:19:12;;;;;;;17.00;10.43;;;;;;;;;;5110777;28;20774;-68
2022/09/30 03:21:47;;;;;;;102.35;11.05;;;;;;;;;;5111670;28;20258;-68
2022/09/30 03:24:34;;;;;;;9.55;8.18;;;;;;;;;;5115178;28;20251;-69
2022/09/30 03:27:05;;;;;;;11.77;10.15;;;;;;;;;;5107936;28;20197;-68
2022/09/30 03:29:36;;;;;;;10.68;9.68;;;;;;;;;;5115104;28;20201;-69
2022/09/30 03:32:09;;;;;;;23.92;9.00;;;;;;;;;;5114572;28;20201;-69
2022/09/30 03:34:38;;;;;;;10.70;9.48;;;;;;;;;;5115069;28;20203;-69
2022/09/30 03:37:12;;;;;;;14.70;9.40;;;;;;;;;;5114601;28;20265;-68
2022/09/30 03:39:46;;;;;;;42.47;9.85;;;;;;;;;;5114797;28;20326;-69
2022/09/30 03:42:16;;;;;;;61.58;13.77;;;;;;;;;;5114620;28;20207;-69
2022/09/30 03:44:45;;;;;;;68.90;34.92;;;;;;;;;;5114211;28;20613;-68
2022/09/30 03:47:13;;;;;;;21.85;15.90;;;;;;;;;;5114696;28;20204;-67
2022/09/30 03:49:41;;;;;;;15.93;9.95;;;;;;;;;;5114678;28;20201;-68
2022/09/30 03:52:12;;;;;;;20.95;10.18;;;;;;;;;;5114364;28;20197;-67
2022/09/30 03:54:44;;;;;;;13.63;9.25;;;;;;;;;;5114722;28;20603;-68
2022/09/30 03:57:11;;;;;;;21.67;9.15;;;;;;;;;;5114209;28;20200;-68
2022/09/30 03:59:37;;;;;;;22.40;10.30;;;;;;;;;;5114139;28;20641;-67
2022/09/30 04:02:05;;;;;;;16.13;11.00;;;;;;;;;;5114143;28;20196;-67
2022/09/30 04:04:32;;;;;;;62.53;12.90;;;;;;;;;;5114351;28;20201;-67
2022/09/30 04:06:59;;;;;;;30.52;11.52;;;;;;;;;;5113759;28;20260;-67
2022/09/30 04:09:27;;;;;;;60.03;25.85;;;;;;;;;;5113862;28;20205;-68
2022/09/30 04:11:53;;;;;;;51.33;24.60;;;;;;;;;;5113999;28;20300;-68
2022/09/30 04:14:20;;;;;;;24.70;18.95;;;;;;;;;;5113750;28;20631;-68
2022/09/30 04:16:46;;;;;;;14.63;11.98;;;;;;;;;;5114200;28;20626;-68
2022/09/30 04:19:12;;;;;;;39.92;10.90;;;;;;;;;;5113867;28;20221;-68
2022/09/30 04:21:39;;;;;;;26.05;16.00;;;;;;;;;;5113847;28;20201;-68
2022/09/30 04:24:06;;;;;;;21.92;13.70;;;;;;;;;;5113639;28;20197;-67
2022/09/30 04:26:33;;;;;;;35.13;15.00;;;;;;;;;;5113234;28;20739;-67
2022/09/30 04:29:00;;;;;;;23.30;16.35;;;;;;;;;;5113622;28;20625;-68
2022/09/30 04:31:26;;;;;;;26.02;12.90;;;;;;;;;;5113668;28;20201;-68
2022/09/30 04:33:55;;;;;;;24.42;17.15;;;;;;;;;;5112475;28;20254;-67
2022/09/30 04:36:22;;;;;;;109.05;38.63;;;;;;;;;;5113483;28;20197;-68
2022/09/30 04:38:49;;;;;;;31.88;14.70;;;;;;;;;;5113705;28;20303;-67
2022/09/30 04:41:16;;;;;;;41.90;23.85;;;;;;;;;;5113192;28;20197;-67
2022/09/30 04:43:45;;;;;;;44.72;16.77;;;;;;;;;;5113152;28;20236;-67
2022/09/30 04:46:12;;;;;;;31.10;13.75;;;;;;;;;;5113384;28;20638;-68
2022/09/30 04:48:38;;;;;;;20.10;13.10;;;;;;;;;;5113592;28;20201;-69
2022/09/30 04:51:05;;;;;;;38.10;12.13;;;;;;;;;;5112651;28;20674;-68
2022/09/30 04:53:31;;;;;;;17.48;12.60;;;;;;;;;;5112820;28;20205;-67
2022/09/30 04:55:58;;;;;;;30.92;12.25;;;;;;;;;;5113038;28;20201;-68
2022/09/30 04:58:25;;;;;;;17.45;12.05;;;;;;;;;;5112969;28;20312;-68
2022/09/30 05:00:59;;;;;;;20.77;12.63;;;;;;;;;;5112800;28;20197;-68
2022/09/30 05:03:25;;;;;;;48.40;14.20;;;;;;;;;;5113149;28;20257;-68
2022/09/30 05:05:52;;;;;;;22.75;13.20;;;;;;;;;;5112666;28;20294;-69
2022/09/30 05:08:18;;;;;;;163.88;15.35;;;;;;;;;;5112698;28;20195;-68
2022/09/30 05:10:45;;;;;;;64.63;12.82;;;;;;;;;;5112470;28;20674;-68
2022/09/30 05:13:12;;;;;;;42.90;12.98;;;;;;;;;;5112376;28;20197;-69
2022/09/30 05:15:38;;;;;;;23.60;14.18;;;;;;;;;;5112891;28;20259;-67
2022/09/30 05:18:06;;;;;;;34.83;14.10;;;;;;;;;;5112648;28;20247;-67
2022/09/30 05:20:33;;;;;;;40.95;20.02;;;;;;;;;;5112345;28;20553;-67
2022/09/30 05:22:59;;;;;;;32.92;15.43;;;;;;;;;;5112746;28;20254;-66
2022/09/30 05:25:26;;;;;;;17.90;13.73;;;;;;;;;;5112337;28;20193;-67
2022/09/30 05:27:52;;;;;;;32.15;15.40;;;;;;;;;;5112443;28;20271;-67
2022/09/30 05:30:19;;;;;;;17.38;12.70;;;;;;;;;;5112529;28;20250;-68
2022/09/30 05:32:45;;;;;;;26.85;12.20;;;;;;;;;;5112224;28;20197;-67
2022/09/30 05:35:13;;;;;;;41.70;13.75;;;;;;;;;;5112508;28;20219;-67
2022/09/30 05:37:40;;;;;;;45.63;16.38;;;;;;;;;;5111977;28;20666;-67
2022/09/30 05:40:07;;;;;;;22.48;13.75;;;;;;;;;;5112069;28;20200;-68
2022/09/30 05:42:35;;;;;;;82.88;17.17;;;;;;;;;;5112130;28;20266;-68
2022/09/30 05:45:02;;;;;;;24.92;15.68;;;;;;;;;;5111590;28;20204;-68
2022/09/30 05:47:28;;;;;;;42.00;17.27;;;;;;;;;;5112345;28;20348;-68
2022/09/30 05:49:55;;;;;;;47.20;19.67;;;;;;;;;;5112105;28;20193;-67
2022/09/30 05:52:23;;;;;;;60.55;20.92;;;;;;;;;;5111958;28;20197;-68
2022/09/30 05:54:49;;;;;;;32.25;20.45;;;;;;;;;;5111892;28;20251;-68
2022/09/30 05:57:16;;;;;;;47.22;20.27;;;;;;;;;;5111693;28;20201;-66
2022/09/30 05:59:42;;;;;;;48.35;22.17;;;;;;;;;;5112069;28;20286;-66
2022/09/30 06:02:09;;;;;;;39.08;21.45;;;;;;;;;;5111496;28;20197;-67
2022/09/30 06:04:35;;;;;;;56.60;25.98;;;;;;;;;;5111955;28;20205;-67
2022/09/30 06:07:02;;;;;;;51.60;22.63;;;;;;;;;;5111460;28;20629;-68
2022/09/30 06:09:29;;;;;;;40.22;23.67;;;;;;;;;;5112422;28;20293;-67
2022/09/30 06:11:56;;;;;;;45.08;23.88;;;;;;;;;;5111706;28;20262;-67
2022/09/30 06:14:23;;;;;;;47.80;26.08;;;;;;;;;;5112069;28;20265;-69
2022/09/30 06:16:52;;;;;;;49.38;26.83;;;;;;;;;;5111661;28;20193;-68
2022/09/30 06:19:20;;;;;;;54.95;28.02;;;;;;;;;;5111277;28;20252;-68
2022/09/30 06:21:46;;;;;;;58.63;29.90;;;;;;;;;;5111416;28;20200;-67
2022/09/30 06:24:13;;;;;;;74.70;32.45;;;;;;;;;;5111593;28;20234;-67
2022/09/30 06:26:42;;;;;;;63.58;31.25;;;;;;;;;;5111064;27;20208;-68
2022/09/30 06:29:08;;;;;;;58.85;32.85;;;;;;;;;;5111144;28;20663;-67
2022/09/30 06:31:35;;;;;;;72.68;33.28;;;;;;;;;;5111191;28;20197;-68
2022/09/30 06:34:01;;;;;;;67.18;31.00;;;;;;;;;;5111314;28;20201;-67
2022/09/30 06:36:28;;;;;;;62.42;28.95;;;;;;;;;;5111146;28;20904;-67
2022/09/30 06:38:54;;;;;;;61.88;30.77;;;;;;;;;;5110917;28;20225;-66
2022/09/30 06:41:26;;;;;;;70.05;30.20;;;;;;;;;;5111129;28;20204;-66
2022/09/30 06:43:54;;;;;;;51.60;29.63;;;;;;;;;;5110773;28;20590;-67
2022/09/30 06:46:22;;;;;;;59.33;31.95;;;;;;;;;;5111181;28;20205;-68
2022/09/30 06:48:51;;;;;;;61.85;31.55;;;;;;;;;;5111389;28;20189;-67
2022/09/30 06:51:19;;;;;;;56.70;30.10;;;;;;;;;;5111200;28;20276;-68
2022/09/30 06:53:45;;;;;;;67.70;32.97;;;;;;;;;;5111304;28;20197;-68
2022/09/30 06:56:12;;;;;;;55.35;31.50;;;;;;;;;;5110701;28;20258;-65
2022/09/30 06:58:39;;;;;;;61.90;32.20;;;;;;;;;;5114576;28;20221;-65
2022/09/30 07:01:07;;;;;;;60.08;32.40;;;;;;;;;;5115066;28;20200;-64
2022/09/30 07:03:34;;;;;;;58.65;31.40;;;;;;;;;;5115325;28;20193;-65
2022/09/30 07:06:01;;;;;;;67.55;33.25;;;;;;;;;;5114701;28;20236;-64
2022/09/30 07:08:30;;;;;;;59.00;32.30;;;;;;;;;;5115390;28;20189;-65
2022/09/30 07:10:56;;;;;;;53.53;30.63;;;;;;;;;;5114794;28;20627;-68
2022/09/30 07:13:23;;;;;;;58.83;32.88;;;;;;;;;;5114767;28;20656;-67
2022/09/30 07:15:52;;;;;;;57.45;32.13;;;;;;;;;;5115291;28;20212;-67
2022/09/30 07:18:20;;;;;;;52.13;30.30;;;;;;;;;;5115070;28;20221;-68
2022/09/30 07:20:51;;;;;;;55.10;31.10;;;;;;;;;;5114816;28;20201;-67
2022/09/30 07:23:17;;;;;;;53.63;32.15;;;;;;;;;;5114994;28;20259;-68
2022/09/30 07:25:51;;;;;;;53.00;31.95;;;;;;;;;;5114744;28;20734;-67
2022/09/30 07:28:17;;;;;;;52.72;31.60;;;;;;;;;;5115213;28;20193;-67
2022/09/30 07:30:44;;;;;;;53.25;29.90;;;;;;;;;;5114547;28;20205;-66
2022/09/30 07:33:15;;;;;;;50.78;30.58;;;;;;;;;;5115022;28;20193;-68
2022/09/30 07:35:49;;;;;;;51.72;30.05;;;;;;;;;;5114320;28;20298;-68
2022/09/30 07:38:16;;;;;;;53.55;32.33;;;;;;;;;;5114653;28;20224;-68
2022/09/30 07:40:42;;;;;;;53.35;31.88;;;;;;;;;;5114274;28;20266;-68
2022/09/30 07:43:09;;;;;;;51.80;32.50;;;;;;;;;;5114762;28;20266;-67
2022/09/30 07:45:36;;;;;;;48.22;32.72;;;;;;;;;;5114651;28;20193;-67
2022/09/30 07:48:13;;;;;;;50.80;32.08;;;;;;;;;;5113787;28;20567;-68
2022/09/30 07:50:46;;;;;;;52.55;33.25;;;;;;;;;;5113955;28;21098;-68
2022/09/30 07:53:12;;;;;;;55.85;35.03;;;;;;;;;;5114205;28;20193;-68
2022/09/30 07:55:38;;;;;;;49.47;32.88;;;;;;;;;;5114418;28;20259;-67
2022/09/30 07:58:06;;;;;;;53.20;35.08;;;;;;;;;;5114091;28;20204;-68
2022/09/30 08:00:33;;;;;;;53.75;32.70;;;;;;;;;;5113803;28;20709;-68
2022/09/30 08:02:59;;;;;;;44.92;28.55;;;;;;;;;;5113864;28;20205;-66
2022/09/30 08:05:26;;;;;;;40.35;25.20;;;;;;;;;;5113612;28;20193;-68
2022/09/30 08:07:54;;;;;;;38.90;23.23;;;;;;;;;;5113568;28;20278;-67
2022/09/30 08:10:20;;;;;;;31.60;21.98;;;;;;;;;;5114160;28;20262;-67
2022/09/30 08:12:47;;;;;;;25.33;20.38;;;;;;;;;;5113610;28;20197;-67
2022/09/30 08:15:13;;;;;;;37.35;22.05;;;;;;;;;;5114061;28;20201;-67
2022/09/30 08:17:40;;;;;;;29.20;22.45;;;;;;;;;;5113608;28;20196;-68
2022/09/30 08:20:07;;;;;;;24.48;19.48;;;;;;;;;;5113118;28;20307;-68
2022/09/30 08:22:33;;;;;;;22.80;17.40;;;;;;;;;;5113083;28;20250;-69
2022/09/30 08:25:01;;;;;;;18.48;12.98;;;;;;;;;;5113182;28;20193;-69
2022/09/30 08:27:28;;;;;;;15.73;14.10;;;;;;;;;;5113595;28;20201;-68
2022/09/30 08:29:54;;;;;;;20.58;16.08;;;;;;;;;;5113134;28;20254;-67
2022/09/30 08:32:21;;;;;;;13.02;11.68;;;;;;;;;;5113470;28;20197;-67
2022/09/30 08:34:47;;;;;;;23.05;14.85;;;;;;;;;;5113296;28;20194;-67
2022/09/30 08:37:14;;;;;;;22.00;14.93;;;;;;;;;;5113076;28;20249;-67
2022/09/30 08:39:42;;;;;;;16.17;11.95;;;;;;;;;;5113402;28;20217;-67
2022/09/30 08:42:23;;;;;;;21.55;13.50;;;;;;;;;;5113411;28;20663;-67
2022/09/30 08:44:51;;;;;;;18.23;14.10;;;;;;;;;;5095833;28;20727;-68
2022/09/30 08:47:28;;;;;;;19.15;13.60;;;;;;;;;;5113517;28;20204;-67
2022/09/30 08:50:01;;;;;;;19.20;14.40;;;;;;;;;;5113519;28;20201;-68
2022/09/30 08:52:29;;;;;;;27.70;17.55;;;;;;;;;;5113148;28;20198;-67
2022/09/30 08:54:56;;;;;;;29.55;17.45;;;;;;;;;;5113399;28;20723;-68
2022/09/30 08:57:23;;;;;;;22.02;15.77;;;;;;;;;;5113541;28;20197;-67
2022/09/30 08:59:52;;;;;;;27.15;15.82;;;;;;;;;;5113167;28;20722;-68
2022/09/30 09:02:21;;;;;;;20.23;16.88;;;;;;;;;;5112700;28;20193;-68
2022/09/30 09:04:49;;;;;;;27.35;16.58;;;;;;;;;;5113366;28;20250;-68
2022/09/30 09:07:25;;;;;;;26.85;16.10;;;;;;;;;;5112594;28;20241;-67
2022/09/30 09:09:59;;;;;;;24.45;16.83;;;;;;;;;;5113194;28;20253;-67
2022/09/30 09:12:29;;;;;;;23.05;16.40;;;;;;;;;;5112817;28;20197;-68
2022/09/30 09:15:08;;;;;;;23.15;16.58;;;;;;;;;;5112878;28;20634;-67
2022/09/30 09:17:40;;;;;;;22.05;14.75;;;;;;;;;;5112854;28;20246;-67
2022/09/30 09:20:13;;;;;;;17.77;14.00;;;;;;;;;;5112103;28;20220;-68
2022/09/30 09:22:39;;;;;;;29.67;14.80;;;;;;;;;;5112776;28;20200;-67
2022/09/30 09:25:06;;;;;;;17.65;14.48;;;;;;;;;;5112528;28;20197;-68
2022/09/30 09:27:40;;;;;;;18.40;13.68;;;;;;;;;;5110966;28;20200;-68
2022/09/30 09:30:10;;;;;;;15.65;13.43;;;;;;;;;;5111364;28;20193;-67
2022/09/30 09:32:37;;;;;;;18.77;13.50;;;;;;;;;;5110923;28;20193;-68
2022/09/30 09:35:07;;;;;;;16.92;13.70;;;;;;;;;;5110864;28;20203;-69
2022/09/30 09:40:29;;;;;;;18.08;13.32;;;;;;;;;;5111004;28;20270;-68
2022/09/30 09:43:02;;;;;;;17.38;13.02;;;;;;;;;;5112171;28;20201;-66
2022/09/30 09:45:34;;;;;;;15.32;12.93;;;;;;;;;;5111740;28;20670;-68
2022/09/30 09:48:01;;;;;;;19.10;11.90;;;;;;;;;;5111797;28;20199;-67
2022/09/30 09:50:31;;;;;;;20.42;10.93;;;;;;;;;;5111766;28;20197;-68
2022/09/30 09:53:15;;;;;;;12.30;10.95;;;;;;;;;;5111887;28;20196;-68
2022/09/30 09:55:42;;;;;;;15.00;10.00;;;;;;;;;;5111898;28;20197;-67
2022/09/30 09:58:12;;;;;;;8.93;6.90;;;;;;;;;;5112402;28;20279;-67
2022/09/30 10:03:27;;;;;;;9.85;7.28;;;;;;;;;;5077148;28;20273;-69
2022/09/30 10:06:02;;;;;;;9.65;7.07;;;;;;;;;;5111443;28;20323;-67
2022/09/30 10:08:30;;;;;;;16.88;9.48;;;;;;;;;;5112122;28;20204;-68
2022/09/30 10:10:58;;;;;;;7.75;6.32;;;;;;;;;;5111833;28;20197;-68
2022/09/30 10:13:25;;;;;;;7.05;5.68;;;;;;;;;;5111856;28;20250;-68
2022/09/30 10:15:54;;;;;;;9.25;5.55;;;;;;;;;;5111542;28;20209;-67
2022/09/30 10:18:23;;;;;;;8.45;5.30;;;;;;;;;;5112007;28;20196;-67
2022/09/30 10:20:51;;;;;;;6.82;4.35;;;;;;;;;;5111329;28;20278;-67
2022/09/30 10:23:19;;;;;;;6.63;4.45;;;;;;;;;;5111940;28;20196;-68
2022/09/30 10:25:55;;;;;;;3.83;3.53;;;;;;;;;;5111279;28;20197;-68
2022/09/30 10:28:23;;;;;;;3.63;3.05;;;;;;;;;;5111474;28;20200;-68
2022/09/30 10:30:53;;;;;;;5.10;3.45;;;;;;;;;;5111363;28;20201;-68
2022/09/30 10:33:23;;;;;;;3.40;3.00;;;;;;;;;;5111341;28;20581;-66
2022/09/30 10:36:07;;;;;;;9.30;3.47;;;;;;;;;;5111447;28;20200;-66
2022/09/30 10:38:34;;;;;;;6.65;3.10;;;;;;;;;;5111433;28;20671;-66
2022/09/30 10:41:01;;;;;;;3.67;3.38;;;;;;;;;;5110878;28;20732;-67
2022/09/30 10:43:29;;;;;;;3.20;2.88;;;;;;;;;;5111289;28;20736;-67
2022/09/30 10:45:58;;;;;;;4.07;3.60;;;;;;;;;;5111339;28;20262;-68
2022/09/30 10:48:27;;;;;;;3.30;2.90;;;;;;;;;;5111205;28;20650;-67
2022/09/30 10:50:55;;;;;;;4.18;3.00;;;;;;;;;;5111320;28;20193;-67
2022/09/30 10:53:23;;;;;;;5.75;3.33;;;;;;;;;;5111160;28;20765;-67
2022/09/30 10:55:50;;;;;;;2.78;2.42;;;;;;;;;;5111050;28;20227;-67
2022/09/30 10:58:29;;;;;;;6.25;2.58;;;;;;;;;;5110973;28;20869;-67
2022/09/30 11:01:00;;;;;;;3.67;2.22;;;;;;;;;;5110965;28;20274;-67
2022/09/30 11:03:30;;;;;;;3.08;2.13;;;;;;;;;;5111024;28;20204;-69
2022/09/30 11:05:59;;;;;;;7.90;2.92;;;;;;;;;;5110883;28;20753;-67
2022/09/30 11:08:30;;;;;;;2.38;2.20;;;;;;;26.07;nan;95078.53;5111405;28;20197;-66
2022/09/30 11:11:01;;;;;;;3.15;2.00;;;;;;;;;;5111041;28;20192;-67
2022/09/30 11:13:29;;;;;;;3.10;2.10;;;;;;;;;;5110906;28;20232;-70
2022/09/30 11:16:01;;;;;;;4.35;2.35;;;;;;;;;;5111311;28;20258;-67
2022/09/30 11:18:32;;;;;;;3.15;1.92;;;;;;;;;;5111085;28;20197;-68
2022/09/30 11:21:02;;;;;;;5.03;3.00;;;;;;;;;;5111011;28;20221;-68
2022/09/30 11:23:32;;;;;;;5.97;2.88;;;;;;;;;;5111378;28;20204;-68
2022/09/30 11:26:02;;;;;;;2.88;2.35;;;;;;;;;;5110950;28;20255;-67
2022/09/30 11:28:35;;;;;;;2.65;2.15;;;;;;;;;;5111333;28;20651;-69
2022/09/30 11:31:07;;;;;;;1.98;1.88;;;;;;;;;;5110894;28;20225;-68
2022/09/30 11:33:46;;;;;;;3.55;1.80;;;;;;;;;;5111178;28;20266;-68
2022/09/30 11:36:17;;;;;;;3.35;1.70;;;;;;;;;;5110694;28;20223;-68
2022/09/30 11:38:54;;;;;;;3.00;2.08;;;;;;;;;;5111169;28;20192;-68
2022/09/30 11:41:24;;;;;;;3.53;2.22;;;;;;;;;;5110643;28;20278;-66
2022/09/30 11:43:55;;;;;;;1.98;1.85;;;;;;;;;;5112946;28;20197;-69
2022/09/30 11:46:36;;;;;;;2.35;1.83;;;;;;;;;;5114491;28;20250;-69
2022/09/30 11:49:24;;;;;;;2.00;1.67;;;;;;;;;;5110796;28;20674;-68
2022/09/30 11:51:56;;;;;;;5.75;2.22;;;;;;;;;;5107176;28;20201;-68
2022/09/30 11:54:28;;;;;;;3.10;1.92;;;;;;;;;;5114194;28;20240;-68
2022/09/30 11:56:58;;;;;;;2.10;1.40;;;;;;;;;;5114539;28;20269;-67
2022/09/30 11:59:27;;;;;;;2.75;2.33;;;;;;;;;;5114492;28;20736;-68
2022/09/30 12:01:54;;;;;;;2.33;2.17;;;;;;;;;;5114306;28;20197;-68
2022/09/30 12:04:28;;;;;;;2.35;1.77;;;;;;;;;;5114338;28;20193;-68
2022/09/30 12:06:58;;;;;;;1.95;1.83;;;;;;;;;;5113995;28;20305;-69
2022/09/30 12:09:26;;;;;;;2.88;1.90;;;;;;;;;;5114386;28;20193;-68
2022/09/30 12:11:55;;;;;;;3.58;1.70;;;;;;;;;;5113732;28;20644;-68
2022/09/30 12:14:28;;;;;;;2.25;1.85;;;;;;;25.49;nan;95135.97;5114275;28;20193;-70
2022/09/30 12:16:56;;;;;;;2.70;1.80;;;;;;;;;;5113978;28;20246;-67
2022/09/30 12:19:26;;;;;;;1.52;1.42;;;;;;;;;;5114335;28;20197;-67
2022/09/30 12:21:57;;;;;;;4.07;2.17;;;;;;;;;;5114073;28;20360;-69
2022/09/30 12:24:29;;;;;;;2.97;2.03;;;;;;;;;;5113730;28;20193;-66
2022/09/30 12:26:56;;;;;;;2.50;2.10;;;;;;;;;;5113830;28;20672;-67
2022/09/30 12:32:25;;;;;;;2.65;1.98;;;;;;;;;;5113606;28;20196;-68
2022/09/30 12:35:03;;;;;;;2.45;2.05;;;;;;;26.49;nan;95099.69;5113570;28;20197;-68
2022/09/30 12:37:48;;;;;;;3.97;2.35;;;;;;;;;;5113540;28;20201;-68
2022/09/30 12:40:26;;;;;;;2.67;2.10;;;;;;;;;;5113144;28;20235;-68
2022/09/30 12:43:01;;;;;;;2.40;1.90;;;;;;;;;;5113385;28;20211;-67
2022/09/30 12:45:36;;;;;;;3.70;1.95;;;;;;;;;;5113645;28;20295;-67
2022/09/30 12:48:05;;;;;;;2.95;2.28;;;;;;;;;;5113619;28;20250;-68
2022/09/30 12:50:40;;;;;;;2.63;2.38;;;;;;;25.78;nan;95104.69;5113640;28;20200;-68
2022/09/30 12:53:11;;;;;;;2.90;1.70;;;;;;;;;;5112701;28;20204;-68
2022/09/30 12:55:40;;;;;;;5.65;1.90;;;;;;;;;;5111779;28;20204;-67
2022/09/30 12:58:15;;;;;;;3.88;2.20;;;;;;;;;;5113538;28;20269;-67
2022/09/30 13:00:41;;;;;;;7.13;1.90;;;;;;;;;;5113134;28;20243;-67
2022/09/30 13:03:14;;;;;;;4.07;2.35;;;;;;;;;;5112904;28;20678;-67
2022/09/30 13:06:05;;;;;;;3.17;1.80;;;;;;;;;;5113020;28;20266;-68
2022/09/30 13:08:46;;;;;;;3.50;1.85;;;;;;;;;;5108277;28;20259;-68
2022/09/30 13:11:36;;;;;;;2.10;2.00;;;;;;;;;;5112925;28;20235;-66
2022/09/30 13:14:12;;;;;;;2.45;2.00;;;;;;;;;;5092159;28;20246;-67
2022/09/30 13:16:59;;;;;;;2.33;1.88;;;;;;;;;;5112741;28;20196;-68
2022/09/30 13:19:35;;;;;;;2.33;1.88;;;;;;;;;;5112929;28;20201;-68
2022/09/30 13:22:50;;;;;;;3.67;2.00;;;;;;;26.35;nan;95108.03;5112096;28;20586;-67
2022/09/30 13:25:18;;;;;;;3.25;1.85;;;;;;;26.26;nan;95114.91;5112535;28;20201;-70
2022/09/30 13:27:46;;;;;;;6.47;1.90;;;;;;;26.09;nan;95087.84;5112613;28;20204;-67
2022/09/30 13:30:39;;;;;;;31.85;21.50;;;;;;;25.98;nan;95106.28;5112475;28;20193;-69
2022/09/30 13:33:29;;;;;;;4.22;3.85;;;;;;;26.01;nan;95097.34;5112200;28;20666;-68
2022/09/30 13:35:57;;;;;;;10.15;7.05;;;;;;;;;;5112155;28;20741;-67
2022/09/30 13:38:34;;;;;;;2.42;2.22;;;;;;;26.01;nan;95110.38;5112450;28;20196;-67
2022/09/30 13:41:04;;;;;;;4.13;2.50;;;;;;;;;;5111799;28;20224;-67
2022/09/30 13:43:37;;;;;;;1.65;1.55;;;;;;;26.06;nan;95113.34;5112692;28;20288;-68
2022/09/30 13:46:11;;;;;;;4.07;2.03;;;;;;;26.09;nan;95107.88;5111938;28;20208;-68
2022/09/30 13:48:42;;;;;;;1.85;1.75;;;;;;;26.04;nan;95105.69;5112333;28;20670;-68
2022/09/30 13:51:14;;;;;;;3.55;2.08;;;;;;;25.97;nan;95115.06;5111731;28;20197;-69
2022/09/30 13:53:44;;;;;;;6.82;2.22;;;;;;;;;;5112556;28;20246;-68
2022/09/30 13:56:18;;;;;;;2.50;1.60;;;;;;;25.82;nan;95116.47;5112073;28;20207;-68
2022/09/30 13:59:08;;;;;;;2.55;2.22;;;;;;;25.93;nan;95118.91;5112166;28;20202;-67
2022/09/30 14:02:08;;;;;;;3.05;1.55;;;;;;;25.94;nan;95117.94;5111519;28;20320;-68
2022/09/30 14:04:46;;;;;;;4.75;2.28;;;;;;;;;;5111965;28;20197;-69
2022/09/30 14:07:22;;;;;;;4.20;2.40;;;;;;;25.90;nan;95129.63;5111345;28;20621;-68
2022/09/30 14:10:11;;;;;;;3.67;3.00;;;;;;;25.96;nan;95128.22;5111758;28;20667;-69
2022/09/30 14:12:55;;;;;;;4.43;1.88;;;;;;;25.96;nan;95128.22;5111660;28;20204;-69
2022/09/30 14:15:45;;;;;;;1.77;1.50;;;;;;;25.97;nan;95122.06;5111907;28;20203;-66
2022/09/30 14:18:39;;;;;;;1.90;1.60;;;;;;;;;;5111616;28;20635;-68
2022/09/30 14:21:26;;;;;;;3.03;2.10;;;;;;;26.08;nan;95119.25;5063256;28;20224;-68
2022/09/30 14:24:03;;;;;;;3.58;1.50;;;;;;;26.00;nan;95134.75;5111379;28;20678;-69
2022/09/30 14:26:48;;;;;;;3.33;1.67;;;;;;;25.88;nan;95141.13;5111746;28;20261;-68
2022/09/30 14:29:21;;;;;;;1.75;1.40;;;;;;;;;;5111791;28;20295;-68
2022/09/30 14:31:47;;;;;;;1.27;1.25;;;;;;;;;;5111286;28;20197;-67
2022/09/30 14:34:17;;;;;;;2.47;1.30;;;;;;;25.83;nan;95143.34;5111727;28;20193;-69
2022/09/30 14:36:45;;;;;;;1.92;1.33;;;;;;;25.84;nan;95150.19;5111695;28;20197;-66
2022/09/30 14:39:18;;;;;;;38.78;23.73;;;;;;;25.85;nan;95147.44;5111102;28;20208;-69
2022/09/30 14:41:50;;;;;;;24.48;17.25;;;;;;;25.89;nan;95154.00;5111194;28;20220;-68
2022/09/30 14:44:18;;;;;;;9.73;5.55;;;;;;;25.89;nan;95148.81;5111273;28;20610;-69